Time;durP1;ratioP1;P1;durP2;ratioP2;P2;SDS_P1;SDS_P2;PMS_P1;PMS_P2;Temp;Humidity;BMP_temperature;BMP_pressure;BME280_temperature;BME280_humidity;BME280_pressure;Samples;Min_cycle;Max_cycle;Signal;HPM_P1;HPM_P2
2021/06/11 00:00:21;;;;;;;10.32;7.38;;;;;;;15.72;84.65;99309.66;5093847;28;20051;-81
2021/06/11 00:02:47;;;;;;;10.50;7.07;;;;;;;15.65;84.20;99303.34;5093774;28;20416;-81
2021/06/11 00:05:15;;;;;;;11.32;6.90;;;;;;;15.64;84.11;99309.06;5093831;28;20044;-81
2021/06/11 00:07:41;;;;;;;11.85;6.82;;;;;;;15.53;84.85;99308.66;5093737;28;20487;-82
2021/06/11 00:10:11;;;;;;;12.52;7.03;;;;;;;15.55;84.79;99306.56;5074349;28;20511;-81
2021/06/11 00:12:38;;;;;;;11.30;7.88;;;;;;;15.54;85.43;99312.25;5073587;28;20056;-81
2021/06/11 00:15:07;;;;;;;12.13;7.90;;;;;;;15.47;85.52;99301.28;5085924;28;20450;-81
2021/06/11 00:17:37;;;;;;;8.10;6.88;;;;;;;15.33;85.71;99300.47;5093464;28;20125;-81
2021/06/11 00:20:07;;;;;;;10.95;7.05;;;;;;;15.22;85.19;99290.19;5093552;28;20529;-81
2021/06/11 00:22:37;;;;;;;10.02;6.55;;;;;;;15.20;85.11;99292.25;5094238;28;20479;-81
2021/06/11 00:25:05;;;;;;;10.80;6.38;;;;;;;15.10;84.95;99297.31;5093549;28;20135;-81
2021/06/11 00:27:31;;;;;;;11.30;6.70;;;;;;;15.08;85.08;99292.06;5089269;28;20382;-81
2021/06/11 00:29:57;;;;;;;8.80;6.90;;;;;;;15.14;85.03;99287.63;5073209;28;20057;-81
2021/06/11 00:32:23;;;;;;;9.70;6.88;;;;;;;15.14;84.43;99304.06;5089811;28;20515;-81
2021/06/11 00:34:50;;;;;;;13.73;6.63;;;;;;;15.23;84.46;99308.28;5088320;28;20044;-81
2021/06/11 00:37:16;;;;;;;13.50;6.63;;;;;;;15.03;84.02;99289.13;5073326;28;20584;-81
2021/06/11 00:39:43;;;;;;;8.55;7.05;;;;;;;15.00;84.21;99297.75;5073354;28;20060;-81
2021/06/11 00:42:13;;;;;;;8.43;6.43;;;;;;;15.00;84.02;99290.38;5073298;28;20060;-81
2021/06/11 00:44:39;;;;;;;14.88;7.63;;;;;;;14.84;84.86;99297.13;5073124;28;20412;-81
2021/06/11 00:47:05;;;;;;;9.57;7.00;;;;;;;14.89;85.25;99310.19;5084202;28;20055;-81
2021/06/11 00:49:32;;;;;;;10.90;6.72;;;;;;;14.94;85.44;99304.91;5092971;28;20048;-81
2021/06/11 00:51:59;;;;;;;9.18;7.28;;;;;;;14.83;85.84;99303.66;5091121;28;20055;-81
2021/06/11 00:54:25;;;;;;;11.00;6.60;;;;;;;14.83;85.43;99292.69;5072362;28;20057;-80
2021/06/11 00:56:53;;;;;;;9.52;7.28;;;;;;;14.91;85.29;99304.50;5072870;28;20446;-81
2021/06/11 00:59:19;;;;;;;10.60;7.75;;;;;;;15.02;84.79;99306.59;5072860;28;20049;-81
2021/06/11 01:01:45;;;;;;;8.02;6.85;;;;;;;14.94;84.76;99299.44;5076447;28;20047;-81
2021/06/11 01:04:12;;;;;;;9.20;6.93;;;;;;;15.01;84.57;99302.19;5092547;28;20044;-81
2021/06/11 01:06:42;;;;;;;8.55;7.15;;;;;;;14.97;84.79;99304.50;5093114;28;20101;-81
2021/06/11 01:09:09;;;;;;;11.88;7.53;;;;;;;14.73;85.08;99302.38;5093580;28;20052;-81
2021/06/11 01:11:37;;;;;;;8.73;6.55;;;;;;;14.70;85.32;99300.88;5093089;28;20098;-81
2021/06/11 01:14:06;;;;;;;10.23;7.07;;;;;;;14.73;85.40;99296.91;5092600;28;20080;-81
2021/06/11 01:16:32;;;;;;;12.88;7.32;;;;;;;14.58;85.46;99280.66;5093049;28;20048;-81
2021/06/11 01:19:02;;;;;;;12.93;7.38;;;;;;;14.54;86.41;99280.19;5091569;28;20048;-81
2021/06/11 01:21:31;;;;;;;10.65;7.63;;;;;;;14.78;85.27;99297.09;5093309;28;20047;-81
2021/06/11 01:24:08;;;;;;;11.77;7.07;;;;;;;14.66;85.17;99288.66;5086980;28;20098;-81
2021/06/11 01:26:38;;;;;;;8.38;6.07;;;;;;;14.58;85.45;99291.59;5072359;28;20106;-81
2021/06/11 01:29:06;;;;;;;;;;;;;;;14.57;85.14;99292.63;5082518;28;20072;-81
2021/06/11 01:31:34;;;;;;;10.43;6.10;;;;;;;14.53;85.02;99289.47;5072861;28;19927;-81
2021/06/11 01:34:02;;;;;;;9.48;5.78;;;;;;;14.37;85.06;99289.84;5072490;28;20048;-81
2021/06/11 01:36:35;;;;;;;11.80;6.72;;;;;;;14.34;85.38;99291.09;5092346;28;20040;-81
2021/06/11 01:39:05;;;;;;;10.05;6.53;;;;;;;14.47;84.61;99291.13;5092768;28;20093;-81
2021/06/11 01:41:33;;;;;;;8.38;6.38;;;;;;;14.50;84.76;99296.19;5087580;28;20511;-81
2021/06/11 01:44:02;;;;;;;12.90;7.45;;;;;;;14.49;84.64;99299.13;5072615;28;20673;-81
2021/06/11 01:46:33;;;;;;;8.90;7.13;;;;;;;14.19;85.24;99288.53;5082004;28;20357;-81
2021/06/11 01:49:01;;;;;;;10.65;6.80;;;;;;;14.12;85.21;99304.94;5076488;28;20338;-81
2021/06/11 01:51:28;;;;;;;9.77;6.80;;;;;;;14.08;85.54;99297.34;5086270;28;20044;-81
2021/06/11 01:53:59;;;;;;;8.73;6.28;;;;;;;14.08;85.46;99305.53;5077216;28;20048;-81
2021/06/11 01:56:25;;;;;;;8.63;6.75;;;;;;;14.05;85.81;99308.69;5076171;28;20044;-81
2021/06/11 01:58:52;;;;;;;8.70;6.75;;;;;;;13.98;86.33;99314.97;5076120;28;20416;-80
2021/06/11 02:01:20;;;;;;;13.57;6.65;;;;;;;13.98;85.90;99305.91;5084640;28;20051;-81
2021/06/11 02:03:47;;;;;;;13.63;6.60;;;;;;;14.11;85.80;99300.50;5075879;28;20497;-81
2021/06/11 02:06:16;;;;;;;9.07;7.03;;;;;;;14.21;85.38;99304.72;5075406;28;20101;-81
2021/06/11 02:08:43;;;;;;;8.95;6.63;;;;;;;14.10;85.25;99300.72;5086658;28;20053;-81
2021/06/11 02:11:09;;;;;;;7.78;6.22;;;;;;;13.98;85.38;99303.19;5096119;28;20044;-81
2021/06/11 02:13:39;;;;;;;11.93;6.68;;;;;;;13.98;85.33;99304.03;5095827;28;20465;-82
2021/06/11 02:16:06;;;;;;;12.07;6.30;;;;;;;13.90;86.61;99308.84;5095460;28;20052;-81
2021/06/11 02:18:35;;;;;;;11.70;6.28;;;;;;;13.92;86.02;99304.81;5094760;28;20502;-81
2021/06/11 02:21:04;;;;;;;14.10;6.68;;;;;;;13.97;85.69;99313.28;5093688;28;20048;-81
2021/06/11 02:23:31;;;;;;;9.45;6.13;;;;;;;14.09;85.21;99316.28;5095088;28;20055;-81
2021/06/11 02:25:57;;;;;;;11.43;6.60;;;;;;;14.11;84.48;99321.53;5075899;28;20048;-81
2021/06/11 02:28:23;;;;;;;10.57;6.85;;;;;;;14.05;84.56;99309.53;5075830;28;20055;-81
2021/06/11 02:30:50;;;;;;;11.45;6.82;;;;;;;13.87;84.96;99301.88;5081736;28;20391;-81
2021/06/11 02:33:17;;;;;;;10.55;6.80;;;;;;;13.79;84.83;99302.91;5095716;28;20403;-81
2021/06/11 02:35:44;;;;;;;9.57;6.18;;;;;;;13.67;85.41;99301.78;5095327;28;20450;-81
2021/06/11 02:38:11;;;;;;;7.78;6.43;;;;;;;13.68;85.36;99297.97;5075602;28;20048;-81
2021/06/11 02:40:37;;;;;;;9.00;6.22;;;;;;;13.57;85.52;99287.63;5075199;28;20488;-81
2021/06/11 02:43:09;;;;;;;8.85;7.18;;;;;;;13.70;86.71;99295.91;5075250;28;20052;-81
2021/06/11 02:45:41;;;;;;;8.38;6.50;;;;;;;13.59;86.88;99296.47;5074903;28;20048;-81
2021/06/11 02:48:18;;;;;;;7.82;6.38;;;;;;;13.49;86.45;99306.91;5080064;28;20051;-81
2021/06/11 02:50:52;;;;;;;10.68;6.78;;;;;;;13.32;86.57;99287.22;5095511;28;20060;-81
2021/06/11 02:53:25;;;;;;;12.30;7.65;;;;;;;13.51;87.71;99302.94;5091892;28;20052;-81
2021/06/11 02:55:55;;;;;;;15.55;8.50;;;;;;;13.67;88.29;99296.31;5074501;28;20090;-81
2021/06/11 02:58:25;;;;;;;14.45;8.07;;;;;;;13.71;89.17;99302.22;5075512;28;20044;-81
2021/06/11 03:00:54;;;;;;;13.82;8.73;;;;;;;13.75;88.63;99296.13;5095282;28;20411;-81
2021/06/11 03:03:23;;;;;;;12.80;8.55;;;;;;;13.86;88.67;99293.88;5094947;28;20052;-81
2021/06/11 03:05:55;;;;;;;10.48;8.25;;;;;;;13.84;89.00;99298.72;5094974;28;20055;-81
2021/06/11 03:08:24;;;;;;;12.25;10.05;;;;;;;13.94;88.51;99293.69;5088366;28;20382;-81
2021/06/11 03:10:53;;;;;;;10.85;8.63;;;;;;;13.83;88.53;99297.84;5074741;28;20048;-80
2021/06/11 03:13:21;;;;;;;11.55;8.57;;;;;;;13.77;89.29;99296.75;5074064;28;20048;-81
2021/06/11 03:15:48;;;;;;;10.40;8.55;;;;;;;13.89;88.33;99298.94;5079872;28;20048;-81
2021/06/11 03:18:26;;;;;;;9.57;7.32;;;;;;;13.83;87.79;99297.03;5093480;28;20048;-82
2021/06/11 03:20:55;;;;;;;12.77;7.75;;;;;;;13.70;88.66;99298.66;5090913;28;20043;-81
2021/06/11 03:23:26;;;;;;;11.23;8.02;;;;;;;13.83;88.57;99297.03;5074655;28;20048;-80
2021/06/11 03:25:56;;;;;;;9.40;8.00;;;;;;;13.87;88.96;99301.03;5073975;28;20087;-81
2021/06/11 03:28:32;;;;;;;16.55;9.30;;;;;;;13.99;88.84;99315.81;5083534;28;20051;-80
2021/06/11 03:31:04;;;;;;;12.10;8.38;;;;;;;13.98;89.26;99311.38;5094401;28;20055;-80
2021/06/11 03:33:34;;;;;;;13.13;9.00;;;;;;;13.93;89.90;99301.06;5092410;28;20063;-80
2021/06/11 03:36:06;;;;;;;10.98;8.57;;;;;;;14.10;89.36;99303.44;5073848;28;20056;-81
2021/06/11 03:38:37;;;;;;;10.80;8.25;;;;;;;14.15;89.30;99304.53;5084241;28;20048;-81
2021/06/11 03:41:03;;;;;;;10.07;8.35;;;;;;;14.28;88.83;99316.53;5093971;28;20109;-81
2021/06/11 03:43:31;;;;;;;12.15;8.18;;;;;;;14.11;88.44;99295.03;5086135;28;20044;-81
2021/06/11 03:45:59;;;;;;;12.90;8.60;;;;;;;14.27;88.10;99309.38;5073867;28;20040;-81
2021/06/11 03:48:29;;;;;;;12.82;8.45;;;;;;;14.32;88.20;99317.84;5073743;28;20055;-81
2021/06/11 03:50:56;;;;;;;12.40;8.18;;;;;;;14.45;87.33;99308.81;5073913;28;20385;-81
2021/06/11 03:53:25;;;;;;;10.85;8.50;;;;;;;14.37;87.28;99306.28;5082088;28;20044;-81
2021/06/11 03:55:55;;;;;;;9.70;8.10;;;;;;;14.14;87.99;99307.47;5082053;28;20098;-81
2021/06/11 03:58:26;;;;;;;9.48;7.70;;;;;;;14.08;88.28;99303.66;5084932;28;20110;-80
2021/06/11 04:00:55;;;;;;;12.35;7.90;;;;;;;14.08;88.28;99294.63;5093898;28;20641;-81
2021/06/11 04:03:22;;;;;;;15.43;7.43;;;;;;;14.23;88.00;99305.41;5094062;28;20051;-81
2021/06/11 04:05:49;;;;;;;10.82;7.45;;;;;;;14.20;87.53;99295.69;5080084;28;20044;-81
2021/06/11 04:08:18;;;;;;;11.13;7.57;;;;;;;14.36;87.82;99310.88;5072854;28;20059;-81
2021/06/11 04:10:53;;;;;;;10.20;7.72;;;;;;;14.44;87.20;99307.97;5073818;28;20105;-81
2021/06/11 04:13:24;;;;;;;14.27;7.90;;;;;;;14.46;87.23;99296.81;5073726;28;20052;-81
2021/06/11 04:15:53;;;;;;;16.85;8.55;;;;;;;14.57;86.92;99303.56;5089773;28;20100;-81
2021/06/11 04:18:23;;;;;;;9.98;7.95;;;;;;;14.61;86.89;99294.78;5086315;28;20051;-81
2021/06/11 04:20:55;;;;;;;12.77;8.30;;;;;;;14.69;86.78;99311.00;5073887;28;20053;-81
2021/06/11 04:23:26;;;;;;;11.63;7.68;;;;;;;14.55;85.82;99305.69;5085899;28;20056;-81
2021/06/11 04:25:56;;;;;;;12.38;8.43;;;;;;;14.66;85.83;99313.28;5093300;28;20044;-81
2021/06/11 04:28:23;;;;;;;10.90;7.97;;;;;;;14.60;85.52;99304.03;5093378;28;20044;-81
2021/06/11 04:30:51;;;;;;;10.90;6.88;;;;;;;14.55;85.28;99301.03;5093573;28;20113;-81
2021/06/11 04:33:22;;;;;;;13.32;8.00;;;;;;;14.70;85.23;99317.31;5093320;28;20446;-81
2021/06/11 04:35:48;;;;;;;13.35;7.53;;;;;;;14.65;85.58;99323.41;5093202;28;20048;-81
2021/06/11 04:38:15;;;;;;;19.55;7.82;;;;;;;14.65;85.21;99323.41;5073215;28;20052;-82
2021/06/11 04:40:42;;;;;;;11.23;8.05;;;;;;;14.68;85.52;99324.91;5074728;28;20045;-81
2021/06/11 04:43:10;;;;;;;10.95;7.57;;;;;;;14.89;85.51;99320.28;5082008;28;20052;-81
2021/06/11 04:45:37;;;;;;;9.90;7.88;;;;;;;14.88;85.92;99332.28;5073023;28;20040;-81
2021/06/11 04:48:04;;;;;;;14.10;7.47;;;;;;;14.91;86.21;99320.91;5072936;28;20488;-81
2021/06/11 04:50:31;;;;;;;12.95;7.55;;;;;;;15.14;85.82;99336.94;5073153;28;20059;-82
2021/06/11 04:52:57;;;;;;;9.85;8.10;;;;;;;15.12;86.18;99328.94;5086961;28;20051;-82
2021/06/11 04:55:24;;;;;;;10.40;7.40;;;;;;;15.21;86.06;99335.03;5093442;28;20056;-81
2021/06/11 04:57:51;;;;;;;15.75;7.80;;;;;;;15.43;85.28;99323.84;5086759;28;20098;-81
2021/06/11 05:00:20;;;;;;;10.15;7.70;;;;;;;15.95;83.54;99332.22;5073570;28;20056;-81
2021/06/11 05:02:46;;;;;;;10.50;7.47;;;;;;;16.54;81.88;99322.84;5072920;28;20550;-81
2021/06/11 05:05:12;;;;;;;11.68;6.90;;;;;;;16.98;80.07;99329.34;5090263;28;20051;-82
2021/06/11 05:07:39;;;;;;;10.23;6.65;;;;;;;17.39;78.68;99329.00;5093494;28;20056;-81
2021/06/11 05:10:06;;;;;;;8.38;6.70;;;;;;;17.80;77.08;99324.81;5078873;28;20484;-81
2021/06/11 05:12:34;;;;;;;10.07;6.57;;;;;;;17.88;76.60;99324.50;5093053;28;20051;-82
2021/06/11 05:15:01;;;;;;;11.98;6.30;;;;;;;18.10;76.33;99329.59;5092441;28;20044;-81
2021/06/11 05:17:28;;;;;;;7.45;5.78;;;;;;;18.45;75.48;99324.25;5088664;28;20049;-81
2021/06/11 05:19:54;;;;;;;8.40;6.25;;;;;;;18.42;75.20;99318.38;5075943;28;20071;-81
2021/06/11 05:22:21;;;;;;;10.23;5.65;;;;;;;18.77;74.14;99312.16;5076790;28;20041;-81
2021/06/11 05:24:48;;;;;;;7.95;6.30;;;;;;;18.86;74.26;99336.41;5076521;28;20056;-81
2021/06/11 05:27:15;;;;;;;8.77;6.28;;;;;;;19.06;73.80;99330.59;5090553;28;20051;-81
2021/06/11 05:29:41;;;;;;;8.82;6.60;;;;;;;19.10;73.58;99340.06;5096922;28;20075;-82
2021/06/11 05:32:07;;;;;;;9.57;6.25;;;;;;;18.85;73.49;99318.22;5096697;28;20048;-82
2021/06/11 05:34:35;;;;;;;8.85;5.88;;;;;;;18.97;74.53;99337.53;5096522;28;20052;-81
2021/06/11 05:37:01;;;;;;;9.98;6.70;;;;;;;19.29;73.27;99337.22;5096972;28;20048;-81
2021/06/11 05:39:27;;;;;;;11.88;6.20;;;;;;;19.54;72.54;99338.91;5096626;28;20082;-82
2021/06/11 05:41:54;;;;;;;14.18;6.85;;;;;;;19.83;70.93;99339.88;5076192;28;20044;-82
2021/06/11 05:44:20;;;;;;;17.38;6.40;;;;;;;19.99;70.22;99343.81;5082689;28;20529;-82
2021/06/11 05:46:46;;;;;;;9.57;6.45;;;;;;;20.06;70.40;99340.94;5096409;28;20040;-82
2021/06/11 05:49:13;;;;;;;10.30;7.55;;;;;;;19.80;70.47;99340.38;5096552;28;20168;-81
2021/06/11 05:51:40;;;;;;;10.23;6.38;;;;;;;20.00;69.31;99337.22;5096118;28;20052;-82
2021/06/11 05:54:07;;;;;;;10.52;6.45;;;;;;;20.15;68.80;99345.81;5096254;28;20055;-82
2021/06/11 05:56:33;;;;;;;9.32;6.63;;;;;;;20.13;69.50;99350.75;5079624;28;20055;-83
2021/06/11 05:58:59;;;;;;;9.90;6.38;;;;;;;20.06;69.36;99343.69;5075958;28;20049;-81
2021/06/11 06:01:25;;;;;;;12.55;7.43;;;;;;;20.08;68.86;99341.53;5075870;28;20048;-82
2021/06/11 06:03:52;;;;;;;10.27;6.13;;;;;;;20.32;68.55;99345.06;5075910;28;20507;-83
2021/06/11 06:06:18;;;;;;;8.13;7.18;;;;;;;20.44;68.21;99350.56;5075685;28;20045;-82
2021/06/11 06:08:52;;;;;;;9.07;6.53;;;;;;;20.65;67.38;99347.13;5075869;28;20044;-82
2021/06/11 06:11:19;;;;;;;6.70;6.03;;;;;;;20.47;68.39;99348.16;5076038;28;20121;-82
2021/06/11 06:13:46;;;;;;;9.18;5.97;;;;;;;20.36;68.67;99360.06;5078883;28;20097;-82
2021/06/11 06:16:12;;;;;;;8.40;6.47;;;;;;;20.36;68.32;99354.53;5087389;28;21626;-82
2021/06/11 06:18:43;;;;;;;13.40;6.10;;;;;;;20.92;67.42;99356.75;5094761;28;20055;-82
2021/06/11 06:21:10;;;;;;;10.77;6.50;;;;;;;21.08;65.21;99355.94;5091877;28;20412;-81
2021/06/11 06:23:37;;;;;;;9.65;5.97;;;;;;;21.16;64.31;99340.88;5089153;28;20053;-81
2021/06/11 06:26:04;;;;;;;7.82;6.30;;;;;;;21.31;64.07;99359.66;5088535;28;20048;-81
2021/06/11 06:28:31;;;;;;;6.85;6.15;;;;;;;21.16;64.27;99346.41;5082763;28;20061;-81
2021/06/11 06:30:57;;;;;;;9.15;5.75;;;;;;;21.60;63.12;99340.22;5083412;28;20040;-81
2021/06/11 06:33:24;;;;;;;8.27;6.25;;;;;;;21.71;62.82;99334.59;5090543;28;20036;-81
2021/06/11 06:35:50;;;;;;;9.55;6.68;;;;;;;21.87;61.73;99327.31;5081588;28;20052;-81
2021/06/11 06:38:18;;;;;;;8.80;6.72;;;;;;;22.21;62.43;99349.38;5073959;28;20048;-81
2021/06/11 06:40:46;;;;;;;10.32;6.75;;;;;;;22.10;61.30;99344.81;5079624;28;20052;-81
2021/06/11 06:43:14;;;;;;;8.52;6.25;;;;;;;21.95;63.21;99352.91;5075523;28;20063;-81
2021/06/11 06:45:41;;;;;;;9.20;6.53;;;;;;;21.49;62.81;99351.09;5085701;28;20056;-82
2021/06/11 06:48:08;;;;;;;7.43;5.97;;;;;;;21.93;61.84;99347.63;5091209;28;20095;-80
2021/06/11 06:50:34;;;;;;;8.13;6.57;;;;;;;22.23;61.85;99343.59;5087342;28;20459;-80
2021/06/11 06:53:05;;;;;;;9.23;6.32;;;;;;;22.44;60.63;99351.06;5093452;28;20052;-81
2021/06/11 06:55:31;;;;;;;8.32;6.15;;;;;;;22.35;61.51;99351.81;5092893;28;20098;-81
2021/06/11 06:57:57;;;;;;;8.80;6.60;;;;;;;22.85;59.43;99333.25;5079543;28;20044;-82
2021/06/11 07:00:25;;;;;;;8.02;6.47;;;;;;;22.95;60.91;99345.25;5081518;28;20074;-81
2021/06/11 07:02:58;;;;;;;9.20;6.07;;;;;;;23.10;60.42;99344.59;5092560;28;20070;-82
2021/06/11 07:05:24;;;;;;;8.07;6.75;;;;;;;23.20;60.31;99329.16;5093876;28;20055;-81
2021/06/11 07:11:06;;;;;;;7.78;6.03;;;;;;;23.32;58.27;99332.59;5071189;28;20523;-81
2021/06/11 07:13:32;;;;;;;8.15;6.43;;;;;;;23.25;58.50;99338.34;5071742;28;20052;-81
2021/06/11 07:16:00;;;;;;;7.22;6.10;;;;;;;23.11;58.94;99340.75;5071815;28;20049;-81
2021/06/11 07:18:26;;;;;;;8.18;6.43;;;;;;;23.18;61.13;99346.06;5072164;28;20059;-82
2021/06/11 07:20:52;;;;;;;8.55;5.90;;;;;;;23.32;59.03;99336.22;5072447;28;20098;-82
2021/06/11 07:23:19;;;;;;;10.38;6.70;;;;;;;23.72;58.94;99344.25;5072690;28;20048;-81
2021/06/11 07:25:45;;;;;;;12.40;7.03;;;;;;;23.49;58.46;99341.59;5072325;28;20117;-81
2021/06/11 07:28:11;;;;;;;6.78;6.07;;;;;;;23.64;58.53;99323.41;5072716;28;20045;-81
2021/06/11 07:30:38;;;;;;;18.30;6.53;;;;;;;23.94;56.78;99339.44;5072450;28;20514;-81
2021/06/11 07:33:06;;;;;;;8.52;6.28;;;;;;;23.58;57.90;99341.13;5072474;28;20588;-81
2021/06/11 07:35:33;;;;;;;8.23;6.55;;;;;;;23.85;57.50;99341.88;5072080;28;20048;-81
2021/06/11 07:37:59;;;;;;;8.68;7.05;;;;;;;24.28;54.52;99332.66;5072242;28;20056;-81
2021/06/11 07:40:25;;;;;;;10.30;6.55;;;;;;;24.23;55.28;99347.34;5072118;28;20048;-81
2021/06/11 07:42:53;;;;;;;9.13;6.20;;;;;;;24.35;54.58;99336.84;5072342;28;20052;-81
2021/06/11 07:45:19;;;;;;;8.98;6.47;;;;;;;24.61;54.92;99342.53;5071648;28;20102;-81
2021/06/11 07:47:46;;;;;;;8.45;6.22;;;;;;;24.74;55.50;99335.63;5072079;28;20083;-81
2021/06/11 07:50:13;;;;;;;11.90;6.05;;;;;;;24.69;54.30;99341.16;5071903;28;20053;-81
2021/06/11 07:52:40;;;;;;;10.15;6.22;;;;;;;24.47;54.07;99335.78;5071888;28;20067;-81
2021/06/11 07:55:08;;;;;;;8.20;7.13;;;;;;;24.89;54.29;99346.75;5073815;28;21720;-81
2021/06/11 07:57:34;;;;;;;7.78;5.85;;;;;;;25.11;54.21;99336.50;5091666;28;20055;-81
2021/06/11 08:00:01;;;;;;;9.57;5.82;;;;;;;25.03;55.52;99343.44;5092253;28;20063;-81
2021/06/11 08:02:27;;;;;;;7.68;6.80;;;;;;;24.66;56.15;99336.13;5091825;28;20048;-81
2021/06/11 08:04:53;;;;;;;7.75;6.18;;;;;;;24.92;53.84;99342.59;5091647;28;20055;-81
2021/06/11 08:07:29;;;;;;;8.52;6.07;;;;;;;25.26;54.63;99331.78;5092008;28;20048;-81
2021/06/11 08:09:55;;;;;;;9.45;6.30;;;;;;;25.13;54.61;99326.78;5092124;28;20075;-81
2021/06/11 08:12:21;;;;;;;6.53;5.70;;;;;;;25.50;54.78;99335.97;5072224;28;20135;-81
2021/06/11 08:14:48;;;;;;;9.40;6.28;;;;;;;25.63;53.31;99335.41;5070113;28;20044;-82
2021/06/11 08:17:14;;;;;;;8.15;6.15;;;;;;;25.72;52.86;99330.94;5071576;28;20130;-81
2021/06/11 08:19:41;;;;;;;8.27;6.55;;;;;;;25.68;51.43;99321.47;5071903;28;20206;-81
2021/06/11 08:22:07;;;;;;;8.07;5.75;;;;;;;25.36;54.36;99325.41;5071741;28;20434;-81
2021/06/11 08:24:35;;;;;;;9.27;5.72;;;;;;;25.37;55.30;99329.03;5071330;28;20484;-81
2021/06/11 08:27:01;;;;;;;8.60;5.95;;;;;;;25.71;52.79;99322.88;5071429;28;20291;-82
2021/06/11 08:29:27;;;;;;;10.52;6.45;;;;;;;25.63;53.05;99335.41;5090375;28;20047;-82
2021/06/11 08:31:53;;;;;;;10.48;6.22;;;;;;;25.59;52.42;99326.78;5091617;28;20054;-82
2021/06/11 08:34:20;;;;;;;7.57;6.15;;;;;;;25.71;51.39;99320.91;5091517;28;20051;-82
2021/06/11 08:36:47;;;;;;;6.43;5.55;;;;;;;25.72;53.62;99327.31;5091745;28;20071;-82
2021/06/11 08:39:13;;;;;;;8.80;6.43;;;;;;;25.30;52.63;99325.69;5091563;28;20087;-83
2021/06/11 08:41:41;;;;;;;6.85;6.15;;;;;;;25.49;53.51;99317.59;5091509;28;20491;-82
2021/06/11 08:44:07;;;;;;;13.95;7.05;;;;;;;25.93;52.80;99330.91;5088541;28;20086;-82
2021/06/11 08:46:35;;;;;;;9.23;6.15;;;;;;;25.92;53.05;99324.47;5071245;28;20044;-82
2021/06/11 08:49:02;;;;;;;6.75;5.53;;;;;;;26.20;52.38;99325.00;5071561;28;20056;-82
2021/06/11 08:51:29;;;;;;;6.22;5.63;;;;;;;26.08;54.11;99330.88;5071208;28;20060;-82
2021/06/11 08:53:56;;;;;;;6.32;5.72;;;;;;;25.94;52.20;99325.03;5071508;28;20263;-82
2021/06/11 08:56:22;;;;;;;6.32;5.72;;;;;;;25.79;49.74;99325.09;5074827;28;20053;-81
2021/06/11 08:58:52;;;;;;;6.32;5.57;;;;;;;25.88;51.29;99328.97;5075441;28;20048;-82
2021/06/11 09:01:18;;;;;;;8.27;5.28;;;;;;;26.19;50.87;99322.50;5088243;28;20479;-82
2021/06/11 09:03:45;;;;;;;7.47;5.00;;;;;;;25.85;47.39;99323.09;5095304;28;20507;-82
2021/06/11 09:06:17;;;;;;;6.85;5.85;;;;;;;25.87;49.64;99313.38;5095074;28;20051;-82
2021/06/11 09:08:50;;;;;;;6.68;5.88;;;;;;;25.88;50.04;99315.03;5095232;28;20056;-82
2021/06/11 09:11:20;;;;;;;8.38;5.78;;;;;;;25.93;52.09;99305.84;5095271;28;20056;-82
2021/06/11 09:13:48;;;;;;;;;;;;;;;25.79;50.04;99312.00;5095436;28;20062;-82
2021/06/11 09:16:17;;;;;;;8.50;4.30;;;;;;;25.92;48.86;99304.16;5094313;28;19920;-82
2021/06/11 09:18:47;;;;;;;8.60;4.50;;;;;;;26.01;47.69;99310.84;5078239;28;20044;-82
2021/06/11 09:21:35;;;;;;;9.90;4.78;;;;;;;26.12;48.22;99317.22;5074875;28;20135;-81
2021/06/11 09:24:24;;;;;;;5.25;4.75;;;;;;;26.16;45.82;99321.09;5075102;28;20044;-82
2021/06/11 09:27:14;;;;;;;6.80;5.20;;;;;;;26.44;46.26;99304.81;5074355;28;20067;-81
2021/06/11 09:29:45;;;;;;;5.88;4.93;;;;;;;27.07;47.26;99311.69;5072747;28;20824;-81
2021/06/11 09:32:22;;;;;;;6.43;5.32;;;;;;;26.94;46.36;99300.06;5080847;28;20056;-81
2021/06/11 09:34:51;;;;;;;5.72;5.13;;;;;;;27.03;47.33;99315.06;5095934;28;20059;-81
2021/06/11 09:37:20;;;;;;;6.18;5.57;;;;;;;26.78;47.03;99318.03;5083946;28;20098;-81
2021/06/11 09:39:51;;;;;;;8.07;5.20;;;;;;;27.01;48.07;99316.50;5075188;28;20071;-81
2021/06/11 09:42:19;;;;;;;5.68;5.10;;;;;;;27.44;48.24;99315.88;5075526;28;20040;-82
2021/06/11 09:44:59;;;;;;;6.53;5.18;;;;;;;27.57;46.81;99301.25;5073724;28;20063;-82
2021/06/11 09:47:35;;;;;;;5.85;5.25;;;;;;;27.39;46.49;99322.34;5084039;28;20052;-81
2021/06/11 09:50:08;;;;;;;9.75;5.63;;;;;;;27.50;45.16;99307.16;5076138;28;20053;-82
2021/06/11 09:52:49;;;;;;;9.48;5.75;;;;;;;27.51;43.11;99316.38;5081347;28;20049;-84
2021/06/11 09:55:23;;;;;;;6.28;5.10;;;;;;;27.29;41.93;99302.88;5080687;28;20064;-82
2021/06/11 09:58:02;;;;;;;8.65;5.28;;;;;;;27.24;43.02;99312.13;5094101;28;20468;-82
2021/06/11 10:00:30;;;;;;;7.32;5.35;;;;;;;27.06;44.41;99310.88;5093639;28;20453;-82
2021/06/11 10:02:59;;;;;;;5.70;5.13;;;;;;;27.11;43.13;99299.66;5074074;28;20041;-82
2021/06/11 10:05:25;;;;;;;10.25;5.05;;;;;;;27.29;43.97;99298.09;5081889;28;20059;-82
2021/06/11 10:07:52;;;;;;;7.28;4.80;;;;;;;27.20;43.85;99294.28;5092073;28;20546;-82
2021/06/11 10:10:19;;;;;;;6.72;5.32;;;;;;;27.52;42.29;99304.91;5093833;28;20182;-84
2021/06/11 10:12:47;;;;;;;6.15;5.43;;;;;;;27.82;40.70;99302.94;5094072;28;20133;-82
2021/06/11 10:15:17;;;;;;;5.80;5.20;;;;;;;27.80;43.06;99299.59;5093426;28;20056;-83
2021/06/11 10:17:43;;;;;;;5.78;5.28;;;;;;;27.64;42.50;99290.56;5094154;28;20590;-82
2021/06/11 10:20:14;;;;;;;7.60;5.70;;;;;;;27.45;41.18;99296.06;5093603;28;20071;-83
2021/06/11 10:22:54;;;;;;;5.97;4.97;;;;;;;27.30;41.52;99294.19;5093909;28;20055;-82
2021/06/11 10:25:22;;;;;;;7.38;5.30;;;;;;;27.14;41.51;99287.09;5092559;28;20054;-83
2021/06/11 10:27:50;;;;;;;6.82;4.82;;;;;;;27.89;42.93;99291.41;5093645;28;20121;-82
2021/06/11 10:30:17;;;;;;;5.95;5.03;;;;;;;27.87;40.27;99274.94;5093549;28;20488;-82
2021/06/11 10:32:46;;;;;;;6.90;5.63;;;;;;;27.80;40.90;99284.81;5093484;28;20484;-83
2021/06/11 10:35:34;;;;;;;7.23;4.83;;;;;;;27.93;41.60;99277.66;5092013;28;20492;-84
2021/06/11 10:38:00;;;;;;;5.47;4.60;;;;;;;28.02;40.94;99293.53;5080355;28;20045;-82
2021/06/11 10:40:33;;;;;;;6.57;5.60;;;;;;;28.20;41.93;99294.69;5073366;28;20129;-82
2021/06/11 10:43:25;;;;;;;8.40;4.75;;;;;;;28.50;41.24;99287.03;5073279;28;20060;-82
2021/06/11 10:45:53;;;;;;;6.32;5.20;;;;;;;28.71;36.88;99287.59;5073274;28;20049;-82
2021/06/11 10:48:20;;;;;;;8.32;4.47;;;;;;;28.77;36.15;99275.19;5073364;28;20067;-83
2021/06/11 10:50:48;;;;;;;6.72;4.10;;;;;;;29.02;34.44;99295.50;5090982;28;20503;-83
2021/06/11 10:53:27;;;;;;;4.60;3.97;;;;;;;28.54;35.61;99296.47;5093111;28;20052;-82
2021/06/11 10:56:15;;;;;;;4.97;4.25;;;;;;;28.58;34.97;99279.94;5091930;28;20381;-82
2021/06/11 10:58:46;;;;;;;9.00;4.25;;;;;;;28.70;34.90;99265.53;5091834;28;20052;-82
2021/06/11 11:01:26;;;;;;;5.72;4.00;;;;;;;28.33;35.40;99279.13;5085457;28;20063;-82
2021/06/11 11:03:54;;;;;;;9.50;4.95;;;;;;;29.00;35.31;99277.38;5077052;28;20067;-81
2021/06/11 11:06:31;;;;;;;5.00;3.90;;;;;;;28.99;34.75;99270.13;5084081;28;20067;-82
2021/06/11 11:08:59;;;;;;;5.07;4.15;;;;;;;29.01;32.50;99259.44;5092661;28;20070;-82
2021/06/11 11:11:34;;;;;;;5.65;3.58;;;;;;;28.55;32.38;99275.78;5092755;28;20580;-82
2021/06/11 11:14:01;;;;;;;5.35;3.65;;;;;;;28.96;30.67;99272.38;5089201;28;20485;-82
2021/06/11 11:16:34;;;;;;;4.50;4.10;;;;;;;29.04;32.10;99261.63;5074788;28;20052;-82
2021/06/11 11:19:01;;;;;;;7.20;4.50;;;;;;;29.21;33.03;99261.94;5078247;28;20055;-82
2021/06/11 11:21:31;;;;;;;4.22;3.83;;;;;;;29.26;33.55;99247.84;5074699;28;20083;-82
2021/06/11 11:23:59;;;;;;;6.68;5.05;;;;;;;29.33;32.69;99253.03;5075959;28;20511;-83
2021/06/11 11:26:46;;;;;;;6.53;4.53;;;;;;;29.65;32.45;99260.56;5078441;28;20048;-81
2021/06/11 11:29:14;;;;;;;5.40;4.25;;;;;;;29.72;31.88;99259.31;5088375;28;20512;-82
2021/06/11 11:31:47;;;;;;;6.30;4.70;;;;;;;29.48;32.17;99249.13;5091110;28;20044;-83
2021/06/11 11:34:14;;;;;;;6.40;4.55;;;;;;;29.42;31.25;99255.97;5092143;28;20053;-83
2021/06/11 11:36:42;;;;;;;8.10;4.40;;;;;;;29.33;30.76;99243.78;5092080;28;20059;-83
2021/06/11 11:39:11;;;;;;;12.15;4.63;;;;;;;29.07;30.32;99241.41;5073811;28;20121;-83
2021/06/11 11:41:41;;;;;;;5.55;4.07;;;;;;;29.28;30.44;99239.97;5072334;28;20504;-83